Time;durP1;ratioP1;P1;durP2;ratioP2;P2;SDS_P1;SDS_P2;PMS_P1;PMS_P2;Temp;Humidity;BMP_temperature;BMP_pressure;BME280_temperature;BME280_humidity;BME280_pressure;Samples;Min_cycle;Max_cycle;Signal;HPM_P1;HPM_P2
2024/04/07 00:00:45;;;;;;;5.30;4.80;;;;;;;11.32;100.00;99665.74;106609;1257;69161;-59
2024/04/07 00:03:12;;;;;;;5.70;5.20;;;;;;;11.34;100.00;99666.55;106960;1254;72922;-59
2024/04/07 00:05:40;;;;;;;5.40;5.00;;;;;;;11.36;100.00;99675.40;106992;1252;61307;-59
2024/04/07 00:08:07;;;;;;;5.80;5.20;;;;;;;11.36;100.00;99679.42;106764;1253;59853;-60
2024/04/07 00:10:36;;;;;;;6.80;5.50;;;;;;;11.35;100.00;99684.71;106672;1254;74506;-59
2024/04/07 00:13:04;;;;;;;5.30;4.90;;;;;;;11.33;100.00;99686.06;106747;1254;68618;-59
2024/04/07 00:15:32;;;;;;;5.90;5.30;;;;;;;11.33;100.00;99689.05;106758;1255;71700;-61
2024/04/07 00:17:59;;;;;;;5.60;5.10;;;;;;;11.27;100.00;99689.30;106792;1254;62566;-59
2024/04/07 00:20:27;;;;;;;5.30;4.80;;;;;;;11.27;100.00;99695.59;106732;1253;61300;-59
2024/04/07 00:22:54;;;;;;;5.30;4.90;;;;;;;11.32;100.00;99698.57;106599;1254;73443;-59
2024/04/07 00:25:22;;;;;;;5.50;5.00;;;;;;;11.25;100.00;99699.54;106769;1252;69617;-59
2024/04/07 00:27:49;;;;;;;5.40;4.90;;;;;;;11.22;100.00;99702.81;106835;1256;73381;-59
2024/04/07 00:30:17;;;;;;;5.20;4.80;;;;;;;11.24;100.00;99706.26;107045;1254;61408;-58
2024/04/07 00:32:45;;;;;;;5.60;5.10;;;;;;;11.21;100.00;99706.22;106774;1259;61348;-58
2024/04/07 00:35:13;;;;;;;5.10;4.70;;;;;;;11.28;100.00;99706.44;106908;1254;75390;-58
2024/04/07 00:37:41;;;;;;;5.40;4.90;;;;;;;11.29;100.00;99714.83;107107;1253;69596;-58
2024/04/07 00:40:09;;;;;;;5.80;4.70;;;;;;;11.32;100.00;99716.61;106695;1257;72311;-58
2024/04/07 00:42:36;;;;;;;4.90;4.30;;;;;;;11.35;100.00;99718.06;106709;1252;61549;-59
2024/04/07 00:45:04;;;;;;;5.10;4.70;;;;;;;11.33;100.00;99724.45;106645;1252;60720;-58
2024/04/07 00:47:32;;;;;;;5.00;4.60;;;;;;;11.36;100.00;99732.95;106553;1259;73789;-58
2024/04/07 00:49:59;;;;;;;6.90;4.90;;;;;;;11.26;100.00;99739.54;106662;1254;69313;-58
2024/04/07 00:52:27;;;;;;;5.10;4.70;;;;;;;11.25;100.00;99747.98;107273;1254;72362;-59
2024/04/07 00:54:55;;;;;;;5.20;4.70;;;;;;;11.23;100.00;99753.66;106626;1254;61321;-59
2024/04/07 00:57:24;;;;;;;6.10;4.60;;;;;;;11.18;100.00;99756.71;106509;1254;61158;-59
2024/04/07 00:59:52;;;;;;;4.60;4.20;;;;;;;11.23;100.00;99755.63;106736;1252;74860;-59
2024/04/07 01:02:19;;;;;;;4.70;4.30;;;;;;;11.15;100.00;99753.34;106273;1262;69773;-59
2024/04/07 01:04:47;;;;;;;4.80;4.40;;;;;;;11.17;100.00;99755.02;107072;1252;72923;-59
2024/04/07 01:07:14;;;;;;;4.10;3.70;;;;;;;11.12;100.00;99760.14;106813;1253;61743;-59
2024/04/07 01:09:42;;;;;;;4.40;4.00;;;;;;;11.13;100.00;99761.64;106586;1260;61248;-59
2024/04/07 01:12:11;;;;;;;4.80;4.40;;;;;;;11.17;100.00;99764.65;106620;1254;75291;-59
2024/04/07 01:14:39;;;;;;;4.30;3.90;;;;;;;11.08;100.00;99761.89;106864;1254;70519;-59
2024/04/07 01:17:06;;;;;;;3.90;3.60;;;;;;;11.14;100.00;99758.11;107102;1256;72422;-59
2024/04/07 01:19:34;;;;;;;4.00;3.70;;;;;;;11.12;100.00;99754.35;106874;1254;61781;-59
2024/04/07 01:23:35;;;;;;;4.30;3.90;;;;;;;10.73;100.00;99768.79;103628;1294;601397;-58
2024/04/07 01:26:03;;;;;;;9.20;4.10;;;;;;;10.99;100.00;99771.91;106008;1263;63796;-58
2024/04/07 01:28:31;;;;;;;4.70;4.10;;;;;;;10.89;100.00;99775.11;106015;1262;59770;-57
2024/04/07 01:30:58;;;;;;;4.10;3.80;;;;;;;10.78;100.00;99765.61;105937;1262;75660;-58
2024/04/07 01:33:26;;;;;;;3.90;3.60;;;;;;;10.82;100.00;99777.73;105977;1266;69285;-58
2024/04/07 01:35:54;;;;;;;4.60;4.10;;;;;;;10.88;100.00;99782.89;107058;1254;73420;-58
2024/04/07 01:38:21;;;;;;;4.40;4.00;;;;;;;10.87;100.00;99793.79;106664;1251;857168;-58
2024/04/07 01:40:50;;;;;;;4.70;4.30;;;;;;;10.82;100.00;99799.64;107115;1252;59958;-58
2024/04/07 01:43:18;;;;;;;4.60;4.20;;;;;;;10.77;100.00;99798.61;106923;1251;74114;-57
2024/04/07 01:45:45;;;;;;;4.50;4.10;;;;;;;10.74;100.00;99792.42;107186;1251;69019;-58
2024/04/07 01:48:13;;;;;;;4.00;3.60;;;;;;;10.74;100.00;99794.34;106735;1251;73347;-58
2024/04/07 01:50:41;;;;;;;3.90;3.60;;;;;;;10.76;100.00;99802.33;107039;1254;60520;-58
2024/04/07 01:53:08;;;;;;;;;;;;;;;10.73;100.00;99804.38;106970;1257;61119;-58
2024/04/07 01:55:36;;;;;;;4.10;3.40;;;;;;;10.74;100.00;99804.17;106805;1259;73683;-58
2024/04/07 01:58:04;;;;;;;3.20;3.00;;;;;;;10.76;100.00;99800.91;107076;1251;69341;-58
2024/04/07 02:00:32;;;;;;;4.00;3.60;;;;;;;10.78;100.00;99798.92;107219;1251;72321;-59
2024/04/07 02:02:59;;;;;;;;;;;;;;;10.75;100.00;99796.92;107168;1256;61817;-59
2024/04/07 02:05:27;;;;;;;3.00;2.80;;;;;;;10.68;100.00;99798.46;107423;1251;59529;-59
2024/04/07 02:07:54;;;;;;;4.40;4.00;;;;;;;10.68;100.00;99805.45;106790;1251;73566;-58
2024/04/07 02:10:22;;;;;;;4.30;3.80;;;;;;;10.74;100.00;99809.95;106775;1256;70821;-59
2024/04/07 02:12:50;;;;;;;4.50;4.10;;;;;;;10.77;100.00;99802.98;106891;1256;75402;-59
2024/04/07 02:15:17;;;;;;;3.80;3.50;;;;;;;10.74;100.00;99809.61;107261;1251;61743;-59
2024/04/07 02:17:45;;;;;;;5.50;4.00;;;;;;;10.78;100.00;99814.52;106997;1251;60503;-59
2024/04/07 02:20:14;;;;;;;4.20;3.80;;;;;;;10.79;100.00;99815.71;106849;1251;74055;-58
2024/04/07 02:22:41;;;;;;;4.40;3.80;;;;;;;10.61;100.00;99819.40;106997;1251;69041;-58
2024/04/07 02:25:10;;;;;;;4.10;3.80;;;;;;;10.60;100.00;99820.70;106700;1253;71666;-58
2024/04/07 02:27:38;;;;;;;;;;;;;;;10.53;100.00;99822.91;106814;1251;61111;-58
2024/04/07 02:30:08;;;;;;;4.60;4.20;;;;;;;10.56;100.00;99825.94;107343;1256;60555;-58
2024/04/07 02:32:35;;;;;;;4.00;3.70;;;;;;;10.48;100.00;99832.73;106633;1251;74689;-59
2024/04/07 02:35:03;;;;;;;5.70;4.60;;;;;;;10.39;100.00;99843.92;107263;1255;70097;-58
2024/04/07 02:37:31;;;;;;;4.00;3.70;;;;;;;10.34;100.00;99842.71;106964;1258;72372;-58
2024/04/07 02:39:59;;;;;;;;;;;;;;;10.31;100.00;99836.35;107206;1251;61309;-57
2024/04/07 02:42:27;;;;;;;3.70;3.40;;;;;;;10.26;100.00;99834.25;106895;1257;60058;-58
2024/04/07 02:50:26;;;;;;;4.50;4.00;;;;;;;10.28;100.00;99831.54;106865;1259;72454;-57
2024/04/07 02:52:54;;;;;;;3.70;3.50;;;;;;;10.23;100.00;99829.80;107159;1253;63648;-58
2024/04/07 02:55:21;;;;;;;3.60;3.30;;;;;;;10.23;100.00;99830.15;106971;1257;60109;-58
2024/04/07 02:57:49;;;;;;;3.70;3.40;;;;;;;10.23;100.00;99838.93;106603;1254;72928;-58
2024/04/07 03:00:17;;;;;;;4.00;3.60;;;;;;;10.24;100.00;99842.55;106961;1254;69185;-56
2024/04/07 03:02:44;;;;;;;3.40;3.10;;;;;;;10.22;100.00;99847.18;106622;1252;72685;-56
2024/04/07 03:05:12;;;;;;;5.10;3.10;;;;;;;10.19;100.00;99846.78;106641;1254;60694;-61
2024/04/07 03:07:40;;;;;;;3.90;3.40;;;;;;;10.15;100.00;99841.69;107103;1257;60435;-57
2024/04/07 03:10:07;;;;;;;4.40;3.30;;;;;;;10.22;100.00;99855.25;107021;1252;74204;-58
2024/04/07 06:04:01;;;;;;;3.80;3.50;;;;;;;12.33;100.00;100048.22;103280;1288;600910;-54
2024/04/07 06:06:29;;;;;;;4.40;4.00;;;;;;;12.35;100.00;100050.54;105208;1266;63948;-55
2024/04/07 06:08:56;;;;;;;4.50;4.10;;;;;;;12.43;100.00;100052.34;105032;1265;60004;-54
2024/04/07 06:11:24;;;;;;;5.60;3.80;;;;;;;12.51;100.00;100057.08;105335;1266;73506;-55
2024/04/07 06:13:51;;;;;;;4.40;4.00;;;;;;;12.56;100.00;100064.07;105978;1260;69089;-54
2024/04/07 06:16:19;;;;;;;5.30;4.30;;;;;;;12.64;100.00;100069.16;105780;1256;71835;-55
2024/04/07 06:18:47;;;;;;;4.70;4.30;;;;;;;12.74;100.00;100073.66;106063;1253;752441;-55
2024/04/07 06:21:16;;;;;;;6.40;4.70;;;;;;;12.82;100.00;100076.27;106453;1255;59688;-56
2024/04/07 06:23:44;;;;;;;4.50;4.10;;;;;;;12.93;100.00;100078.95;106112;1253;73228;-55
2024/04/07 06:26:11;;;;;;;5.10;4.50;;;;;;;12.98;100.00;100077.48;106690;1253;69994;-56
2024/04/07 06:28:40;;;;;;;5.40;4.80;;;;;;;13.10;100.00;100076.77;106302;1258;72617;-54
2024/04/07 06:31:07;;;;;;;4.10;3.80;;;;;;;13.23;100.00;100073.68;106146;1256;61752;-54
2024/04/07 06:33:36;;;;;;;6.00;3.70;;;;;;;13.29;100.00;100074.33;107671;1253;60247;-55
2024/04/07 06:36:04;;;;;;;4.50;4.10;;;;;;;13.25;100.00;100076.78;106139;1253;74085;-55
2024/04/07 06:38:32;;;;;;;4.70;4.20;;;;;;;13.36;100.00;100078.59;106008;1258;69609;-57
2024/04/07 06:41:00;;;;;;;4.70;4.20;;;;;;;13.40;100.00;100085.76;106094;1252;72924;-54
2024/04/07 06:43:27;;;;;;;4.80;4.30;;;;;;;13.51;100.00;100084.92;106482;1257;61416;-55
2024/04/07 06:45:59;;;;;;;3.50;3.20;;;;;;;13.62;100.00;100088.08;105970;1258;60448;-55
2024/04/07 06:48:26;;;;;;;5.60;3.80;;;;;;;13.71;100.00;100087.81;106314;1251;73351;-55
2024/04/07 06:50:54;;;;;;;5.30;3.20;;;;;;;13.76;100.00;100089.02;106750;1253;69600;-54
2024/04/07 06:53:22;;;;;;;5.00;3.60;;;;;;;13.87;100.00;100098.50;106488;1256;71541;-54
2024/04/07 06:55:49;;;;;;;4.10;3.40;;;;;;;14.31;100.00;100100.52;107298;1253;60835;-55
2024/04/07 06:58:18;;;;;;;3.20;2.80;;;;;;;14.15;100.00;100103.45;106399;1253;60550;-54
2024/04/07 07:00:47;;;;;;;3.60;3.20;;;;;;;14.23;100.00;100116.79;106318;1256;75603;-54
2024/04/07 07:03:15;;;;;;;4.00;3.00;;;;;;;14.31;100.00;100120.66;106053;1253;69345;-55
2024/04/07 07:05:43;;;;;;;5.50;3.50;;;;;;;14.35;100.00;100119.74;106229;1253;71753;-55
2024/04/07 07:08:10;;;;;;;3.20;2.80;;;;;;;14.45;100.00;100117.98;106737;1253;62139;-54
2024/04/07 07:10:38;;;;;;;5.20;2.80;;;;;;;14.56;100.00;100130.10;106357;1252;60575;-53
2024/04/07 07:13:06;;;;;;;;;;;;;;;14.66;100.00;100131.59;106909;1256;73660;-55
2024/04/07 07:15:33;;;;;;;8.20;4.00;;;;;;;14.76;100.00;100131.60;106191;1253;69534;-55
2024/04/07 07:18:01;;;;;;;3.50;3.20;;;;;;;14.84;100.00;100130.80;105841;1254;72360;-55
2024/04/07 07:20:30;;;;;;;3.90;3.50;;;;;;;14.98;100.00;100135.91;106368;1253;60557;-55
2024/04/07 07:22:57;;;;;;;4.50;2.90;;;;;;;15.15;100.00;100139.02;106137;1258;60443;-55
2024/04/07 07:25:25;;;;;;;6.00;3.10;;;;;;;15.18;100.00;100141.02;105803;1258;73695;-55
2024/04/07 07:27:53;;;;;;;5.60;2.90;;;;;;;15.23;100.00;100144.98;106444;1253;69640;-55
2024/04/07 07:30:21;;;;;;;;;;;;;;;15.32;100.00;100146.95;106254;1254;71495;-55
2024/04/07 07:32:50;;;;;;;2.90;2.60;;;;;;;15.34;100.00;100148.61;106077;1253;61798;-55
2024/04/07 07:35:18;;;;;;;2.70;2.40;;;;;;;15.24;100.00;100147.78;106463;1253;60456;-55
2024/04/07 07:37:46;;;;;;;;;;;;;;;15.39;100.00;100148.69;106419;1252;73807;-56
2024/04/07 07:40:13;;;;;;;4.10;2.80;;;;;;;15.51;100.00;100147.68;106670;1253;69240;-55
2024/04/07 07:42:41;;;;;;;5.70;2.30;;;;;;;15.49;100.00;100149.71;106749;1254;73348;-54
2024/04/07 07:45:09;;;;;;;3.90;2.50;;;;;;;15.56;100.00;100144.22;106798;1253;61401;-55
2024/04/07 07:47:37;;;;;;;3.20;2.20;;;;;;;15.68;100.00;100140.77;106549;1257;60438;-55
2024/04/07 07:50:06;;;;;;;;;;;;;;;15.77;100.00;100141.14;106675;1254;74769;-55
2024/04/07 07:52:34;;;;;;;4.70;2.70;;;;;;;15.75;100.00;100142.98;107047;1253;71350;-55
2024/04/07 07:55:02;;;;;;;2.00;1.80;;;;;;;15.83;100.00;100141.55;106687;1259;72447;-55
2024/04/07 07:57:30;;;;;;;2.40;2.10;;;;;;;15.88;100.00;100144.96;106514;1251;61588;-55
2024/04/07 07:59:57;;;;;;;4.10;1.90;;;;;;;16.12;100.00;100147.30;106420;1253;62580;-56
2024/04/07 08:02:45;;;;;;;1.90;1.70;;;;;;;16.24;100.00;100153.34;106771;1254;74582;-55
2024/04/07 08:05:14;;;;;;;3.60;2.00;;;;;;;16.36;100.00;100154.41;107723;1252;69561;-55
2024/04/07 08:07:44;;;;;;;2.40;1.90;;;;;;;16.39;100.00;100149.59;107904;1253;71955;-56
2024/04/07 08:10:13;;;;;;;4.90;2.10;;;;;;;16.50;100.00;100160.65;107983;1253;63814;-56
2024/04/07 08:12:40;;;;;;;2.80;2.10;;;;;;;16.53;100.00;100162.42;107300;1253;60490;-56
2024/04/07 08:15:11;;;;;;;4.50;2.00;;;;;;;16.58;100.00;100159.27;106257;1253;74036;-56
2024/04/07 08:17:38;;;;;;;2.00;1.80;;;;;;;16.68;100.00;100159.91;106180;1255;70119;-58
2024/04/07 08:20:06;;;;;;;2.60;2.00;;;;;;;16.84;100.00;100162.38;106533;1253;73261;-55
2024/04/07 08:22:34;;;;;;;3.70;2.10;;;;;;;16.97;100.00;100163.21;106224;1254;61851;-56
2024/04/07 08:25:05;;;;;;;5.80;2.10;;;;;;;17.07;100.00;100159.19;106495;1257;60246;-55
2024/04/07 08:27:33;;;;;;;2.60;1.80;;;;;;;17.13;100.00;100155.27;106948;1253;74019;-56
2024/04/07 08:30:01;;;;;;;3.00;1.90;;;;;;;17.21;100.00;100157.95;107247;1253;72934;-56
2024/04/07 08:32:29;;;;;;;3.50;1.40;;;;;;;17.30;100.00;100154.20;106388;1254;72733;-55
2024/04/07 08:34:56;;;;;;;2.40;1.30;;;;;;;17.38;100.00;100155.30;106725;1252;61423;-56
2024/04/07 08:37:25;;;;;;;3.50;1.40;;;;;;;17.49;100.00;100156.43;106482;1251;60643;-56
2024/04/07 08:39:53;;;;;;;2.80;1.20;;;;;;;17.45;100.00;100159.82;106116;1251;73664;-55
2024/04/07 08:42:21;;;;;;;1.60;1.10;;;;;;;17.50;100.00;100157.77;105880;1260;69542;-56
2024/04/07 08:44:48;;;;;;;2.60;1.30;;;;;;;17.55;100.00;100160.79;106853;1255;71656;-56
2024/04/07 08:47:16;;;;;;;2.10;1.10;;;;;;;17.50;100.00;100163.80;107065;1253;61673;-56
2024/04/07 08:49:44;;;;;;;5.30;1.50;;;;;;;17.65;100.00;100158.75;105859;1254;61698;-55
2024/04/07 08:52:12;;;;;;;2.80;1.50;;;;;;;17.74;100.00;100162.42;105960;1251;73646;-56
2024/04/07 08:54:39;;;;;;;2.60;1.30;;;;;;;17.90;100.00;100161.98;105927;1254;70387;-56
2024/04/07 08:57:08;;;;;;;3.60;1.30;;;;;;;18.01;100.00;100161.05;106331;1253;71369;-58
2024/04/07 08:59:36;;;;;;;4.60;1.30;;;;;;;18.07;100.00;100159.98;106250;1252;61521;-57
2024/04/07 09:02:03;;;;;;;1.70;1.20;;;;;;;18.12;100.00;100153.59;106080;1252;61539;-56
2024/04/07 09:04:32;;;;;;;2.00;0.90;;;;;;;18.20;99.07;100145.50;106335;1252;72835;-56
2024/04/07 09:07:03;;;;;;;2.20;1.20;;;;;;;18.30;96.64;100144.81;105729;1258;69644;-56
2024/04/07 09:09:31;;;;;;;3.60;1.30;;;;;;;18.36;94.98;100147.41;106226;1254;73656;-56
2024/04/07 09:11:59;;;;;;;2.90;1.40;;;;;;;18.26;95.71;100149.65;106799;1255;60881;-57
2024/04/07 09:14:33;;;;;;;;;;;;;;;18.44;93.18;100149.89;106602;1256;59847;-56
2024/04/07 09:17:05;;;;;;;2.30;1.10;;;;;;;18.51;86.00;100154.23;106273;1258;73962;-56
2024/04/07 09:19:39;;;;;;;3.20;2.00;;;;;;;18.56;84.57;100155.85;106097;1257;69174;-56
2024/04/07 09:22:06;;;;;;;1.70;1.20;;;;;;;18.60;88.08;100155.55;105805;1253;73371;-56
2024/04/07 09:24:35;;;;;;;2.00;1.30;;;;;;;18.60;90.45;100157.13;106752;1252;61516;-57
2024/04/07 09:27:09;;;;;;;2.10;1.30;;;;;;;18.77;84.18;100159.89;105946;1254;60208;-56
2024/04/07 09:29:39;;;;;;;3.00;1.30;;;;;;;18.81;81.99;100166.38;106591;1256;75400;-57
2024/04/07 09:32:07;;;;;;;3.20;1.20;;;;;;;18.83;76.99;100169.66;105951;1257;69439;-56
2024/04/07 09:34:38;;;;;;;3.50;1.20;;;;;;;18.79;77.70;100172.02;106505;1254;73261;-57
2024/04/07 09:37:05;;;;;;;4.70;1.40;;;;;;;18.83;79.46;100174.44;106810;1257;60530;-57
2024/04/07 09:39:33;;;;;;;2.40;1.30;;;;;;;18.98;74.21;100170.37;106677;1253;60632;-57
2024/04/07 09:42:01;;;;;;;1.40;0.90;;;;;;;19.19;75.81;100174.45;106911;1254;73896;-58
2024/04/07 09:44:33;;;;;;;2.10;1.10;;;;;;;19.37;72.04;100167.96;106222;1254;69458;-56
2024/04/07 09:47:03;;;;;;;3.30;1.70;;;;;;;19.51;70.79;100174.15;107612;1256;71591;-56
2024/04/07 09:49:34;;;;;;;3.60;1.50;;;;;;;19.55;68.30;100177.56;107111;1259;60452;-57
2024/04/07 09:52:04;;;;;;;2.10;1.10;;;;;;;19.53;68.23;100174.69;106936;1256;59690;-57
2024/04/07 09:54:39;;;;;;;3.70;1.40;;;;;;;19.50;69.51;100174.19;106910;1254;74985;-58
2024/04/07 09:57:11;;;;;;;2.80;1.10;;;;;;;19.49;70.12;100174.08;105875;1254;70348;-62
2024/04/07 09:59:39;;;;;;;4.60;1.40;;;;;;;19.39;71.46;100174.95;104863;1256;72753;-57
2024/04/07 10:02:06;;;;;;;;;;;;;;;19.32;72.32;100177.59;104543;1275;60610;-56
2024/04/07 10:04:34;;;;;;;;;;;;;;;19.31;72.75;100177.85;106004;1254;60573;-58
2024/04/07 10:07:02;;;;;;;;;;;;;;;19.33;70.04;100176.77;105401;1254;73002;-58
2024/04/07 10:09:29;;;;;;;2.60;1.10;;;;;;;19.27;70.48;100182.58;105380;1253;68673;-56
2024/04/07 10:11:57;;;;;;;2.70;1.30;;;;;;;19.23;70.30;100184.06;105262;1257;71439;-58
2024/04/07 10:14:35;;;;;;;;;;;;;;;19.21;71.61;100187.59;105452;1256;61313;-54
2024/04/07 10:17:02;;;;;;;;;;;;;;;19.27;71.21;100194.10;105319;1254;61260;-54
2024/04/07 10:19:30;;;;;;;1.80;1.20;;;;;;;19.42;70.15;100191.48;104768;1258;74774;-55
2024/04/07 10:21:57;;;;;;;2.30;1.20;;;;;;;19.44;70.37;100185.48;105290;1254;69493;-57
2024/04/07 10:24:25;;;;;;;2.50;1.10;;;;;;;19.52;69.19;100181.84;106049;1257;72992;-57
2024/04/07 10:26:53;;;;;;;;;;;;;;;19.62;67.60;100185.80;105441;1255;61267;-56
2024/04/07 10:29:27;;;;;;;3.80;1.40;;;;;;;19.65;66.53;100188.41;105946;1253;61343;-56
2024/04/07 10:31:55;;;;;;;2.30;0.90;;;;;;;19.73;67.34;100189.61;104848;1254;75173;-55
2024/04/07 10:34:23;;;;;;;3.40;1.40;;;;;;;19.78;66.77;100188.94;104944;1258;69349;-56
2024/04/07 10:36:52;;;;;;;3.50;1.50;;;;;;;19.79;62.82;100188.80;105110;1256;72742;-56
2024/04/07 10:39:20;;;;;;;3.50;1.40;;;;;;;19.85;64.52;100186.99;104910;1263;60939;-60
2024/04/07 10:41:47;;;;;;;;;;;;;;;19.97;63.64;100181.88;105449;1253;61347;-55
2024/04/07 10:44:15;;;;;;;;;;;;;;;20.01;62.02;100183.02;104898;1255;74476;-55
2024/04/07 10:46:42;;;;;;;2.40;1.30;;;;;;;20.13;62.62;100185.27;105436;1257;69379;-55
2024/04/07 10:49:10;;;;;;;2.30;1.20;;;;;;;20.29;61.70;100188.73;104781;1259;71597;-56
2024/04/07 10:51:38;;;;;;;2.50;1.30;;;;;;;20.32;58.20;100191.39;105417;1253;60801;-56
2024/04/07 10:54:07;;;;;;;4.30;1.40;;;;;;;20.37;58.48;100188.65;104648;1257;61885;-56
2024/04/07 10:56:35;;;;;;;4.60;1.30;;;;;;;20.43;58.56;100188.74;105061;1255;75195;-58
2024/04/07 10:59:02;;;;;;;3.00;1.40;;;;;;;20.50;58.05;100184.89;105313;1251;69501;-56
2024/04/07 11:01:30;;;;;;;2.60;1.20;;;;;;;20.54;57.18;100182.02;105090;1254;72706;-56
2024/04/07 11:03:57;;;;;;;2.80;1.40;;;;;;;20.58;56.61;100183.90;104815;1258;61386;-55
2024/04/07 11:06:25;;;;;;;3.00;1.20;;;;;;;20.62;55.50;100185.92;104980;1253;63150;-56
2024/04/07 11:08:54;;;;;;;2.60;1.20;;;;;;;20.57;53.98;100183.41;104891;1251;74436;-57
2024/04/07 11:11:22;;;;;;;1.90;0.90;;;;;;;20.55;52.86;100181.96;104669;1257;72045;-56
2024/04/07 11:13:54;;;;;;;2.40;1.10;;;;;;;20.53;52.92;100179.10;104685;1259;71760;-55
2024/04/07 11:16:22;;;;;;;2.70;0.90;;;;;;;20.46;53.50;100188.53;104971;1254;61419;-57
2024/04/07 11:18:49;;;;;;;3.80;1.10;;;;;;;20.46;53.75;100191.23;105586;1252;61192;-56
2024/04/07 11:21:18;;;;;;;1.10;0.80;;;;;;;20.43;54.18;100190.16;105256;1256;74722;-57
2024/04/07 11:23:46;;;;;;;2.40;1.20;;;;;;;20.37;53.89;100191.90;105192;1254;69731;-56
2024/04/07 11:26:15;;;;;;;2.00;1.20;;;;;;;20.29;55.38;100190.50;105185;1264;73212;-56
2024/04/07 11:28:43;;;;;;;;;;;;;;;20.32;55.97;100190.62;105358;1257;61343;-56
2024/04/07 11:31:11;;;;;;;1.30;1.00;;;;;;;20.33;54.82;100191.78;104941;1254;61372;-56
2024/04/07 11:33:38;;;;;;;1.70;0.90;;;;;;;20.30;54.99;100194.88;104828;1253;74704;-56
2024/04/07 11:36:06;;;;;;;14.70;12.80;;;;;;;20.23;55.44;100193.98;105028;1256;70292;-56
2024/04/07 11:38:34;;;;;;;44.10;39.80;;;;;;;20.23;54.21;100196.50;104700;1265;72794;-58
2024/04/07 11:41:01;;;;;;;21.80;19.50;;;;;;;20.14;54.00;100198.77;105434;1254;61228;-56
2024/04/07 11:43:29;;;;;;;5.30;2.50;;;;;;;20.01;54.77;100202.20;104680;1257;61305;-55
2024/04/07 11:45:57;;;;;;;2.00;1.80;;;;;;;20.13;55.49;100200.46;104883;1257;73658;-56
2024/04/07 11:48:26;;;;;;;5.80;2.20;;;;;;;20.24;55.10;100197.84;105154;1259;72940;-56
2024/04/07 11:50:54;;;;;;;2.80;1.80;;;;;;;20.29;55.05;100197.50;105238;1259;72463;-56
2024/04/07 11:53:22;;;;;;;;;;;;;;;20.33;55.17;100201.45;104861;1254;61355;-57
2024/04/07 11:55:49;;;;;;;3.00;1.50;;;;;;;20.28;53.73;100190.63;105032;1254;61329;-56
2024/04/07 11:58:17;;;;;;;2.20;1.20;;;;;;;20.36;54.03;100200.91;104998;1257;74753;-56
2024/04/07 12:00:44;;;;;;;;;;;;;;;20.40;54.48;100199.12;105168;1255;70679;-57
2024/04/07 12:03:12;;;;;;;3.10;0.90;;;;;;;20.45;55.32;100201.06;104853;1257;72902;-55
2024/04/07 12:05:39;;;;;;;9.10;2.00;;;;;;;20.49;55.76;100205.77;104814;1257;61379;-56
2024/04/07 12:08:07;;;;;;;;;;;;;;;20.50;55.36;100209.42;105008;1257;61317;-55
2024/04/07 12:10:35;;;;;;;13.30;8.90;;;;;;;20.51;55.43;100209.18;105298;1257;74496;-56
2024/04/07 12:13:02;;;;;;;7.80;5.70;;;;;;;20.45;54.86;100207.32;104977;1266;69974;-55
2024/04/07 12:15:30;;;;;;;;;;;;;;;20.20;55.47;100187.98;104906;1254;72726;-55
2024/04/07 12:17:58;;;;;;;;;;;;;;;20.43;55.49;100207.10;104808;1253;61347;-55
2024/04/07 12:20:26;;;;;;;2.00;1.30;;;;;;;20.41;53.82;100207.40;104908;1257;61027;-56
2024/04/07 12:22:54;;;;;;;1.60;1.00;;;;;;;20.40;54.58;100195.76;104428;1255;74736;-56
2024/04/07 12:25:22;;;;;;;1.90;1.00;;;;;;;20.38;54.71;100195.90;104703;1253;69738;-57
2024/04/07 12:27:50;;;;;;;2.00;1.00;;;;;;;20.39;54.64;100200.27;104986;1254;73051;-56
2024/04/07 12:30:17;;;;;;;2.20;1.10;;;;;;;20.42;54.53;100204.35;104862;1254;61248;-58
2024/04/07 12:32:45;;;;;;;2.70;1.20;;;;;;;20.49;54.10;100202.54;105067;1254;61379;-56
2024/04/07 12:35:13;;;;;;;1.60;1.00;;;;;;;20.40;53.85;100206.65;104934;1254;74747;-56
2024/04/07 12:37:40;;;;;;;;;;;;;;;20.44;54.22;100206.30;104699;1254;69527;-57
2024/04/07 12:40:08;;;;;;;3.50;1.60;;;;;;;20.47;54.12;100204.86;104733;1255;72750;-56
2024/04/07 12:42:38;;;;;;;2.30;1.20;;;;;;;20.58;54.30;100207.53;104796;1254;61401;-56
2024/04/07 12:45:06;;;;;;;2.80;1.80;;;;;;;20.53;55.26;100205.30;104557;1255;61365;-55
2024/04/07 12:47:33;;;;;;;3.80;1.80;;;;;;;20.58;55.32;100206.85;105119;1254;75813;-55
2024/04/07 12:50:01;;;;;;;2.90;1.30;;;;;;;20.57;54.83;100213.71;104835;1254;70028;-56
2024/04/07 12:52:29;;;;;;;2.60;1.40;;;;;;;20.43;55.45;100216.00;104879;1254;72745;-56
2024/04/07 12:54:56;;;;;;;3.70;1.80;;;;;;;20.31;56.40;100219.05;104958;1259;61594;-56
2024/04/07 12:57:24;;;;;;;7.00;1.50;;;;;;;20.47;56.52;100217.69;105179;1256;61264;-56
2024/04/07 12:59:52;;;;;;;4.90;1.30;;;;;;;20.36;56.35;100209.77;105555;1251;74719;-56
2024/04/07 13:02:19;;;;;;;;;;;;;;;20.37;56.82;100209.73;105017;1255;68921;-56
2024/04/07 13:04:47;;;;;;;3.20;1.50;;;;;;;20.32;56.62;100205.63;104573;1257;73296;-55
2024/04/07 13:07:15;;;;;;;5.30;3.20;;;;;;;20.31;57.44;100206.00;105211;1254;61338;-55
2024/04/07 13:09:43;;;;;;;8.50;4.40;;;;;;;20.34;56.64;100202.07;105134;1254;61279;-56
2024/04/07 13:12:11;;;;;;;3.30;1.80;;;;;;;20.35;56.97;100202.38;105028;1256;74739;-56
2024/04/07 13:14:38;;;;;;;2.10;1.50;;;;;;;20.39;56.83;100202.56;104848;1253;70122;-56
2024/04/07 13:17:08;;;;;;;3.00;1.50;;;;;;;20.44;56.95;100200.23;105422;1255;71669;-55
2024/04/07 13:19:36;;;;;;;3.10;1.10;;;;;;;20.51;56.66;100199.55;105031;1257;61338;-56
2024/04/07 13:22:04;;;;;;;3.20;1.50;;;;;;;20.54;56.24;100196.85;104985;1252;61504;-58
2024/04/07 13:24:32;;;;;;;3.60;1.80;;;;;;;20.53;55.71;100194.95;105184;1254;73362;-57
2024/04/07 13:26:59;;;;;;;2.60;1.50;;;;;;;20.68;56.35;100195.63;105636;1254;70157;-56
2024/04/07 13:29:27;;;;;;;;;;;;;;;20.80;54.14;100197.42;105271;1253;73160;-56
2024/04/07 13:31:55;;;;;;;2.00;1.40;;;;;;;20.90;54.26;100192.02;104647;1254;61383;-56
2024/04/07 13:34:22;;;;;;;3.90;1.40;;;;;;;20.86;53.72;100190.02;104905;1254;61292;-60
2024/04/07 13:39:55;;;;;;;2.00;1.00;;;;;;;20.63;55.03;100182.41;101820;1286;601579;-57
2024/04/07 13:42:23;;;;;;;4.00;1.70;;;;;;;21.12;53.59;100182.80;104138;1267;60415;-57
2024/04/07 13:44:50;;;;;;;2.50;1.10;;;;;;;21.37;53.18;100182.94;104087;1270;60361;-57
2024/04/07 13:47:18;;;;;;;3.60;1.60;;;;;;;21.40;51.59;100186.11;104074;1266;73066;-56
2024/04/07 13:49:46;;;;;;;1.90;1.30;;;;;;;21.34;51.65;100188.51;104393;1265;69500;-56
2024/04/07 13:52:14;;;;;;;1.80;1.20;;;;;;;21.28;52.09;100189.41;104685;1267;71720;-55
2024/04/07 13:54:42;;;;;;;;;;;;;;;21.20;52.30;100196.63;103776;1264;870365;-56
2024/04/07 13:57:10;;;;;;;2.70;1.90;;;;;;;21.14;53.06;100198.17;104598;1264;62551;-56
2024/04/07 13:59:37;;;;;;;;;;;;;;;21.07;56.71;100202.30;104681;1262;73217;-57
2024/04/07 14:02:04;;;;;;;4.00;2.10;;;;;;;21.11;58.52;100201.77;104073;1264;70039;-56
2024/04/07 14:04:32;;;;;;;4.10;2.20;;;;;;;21.13;58.45;100196.96;105154;1263;72845;-56
2024/04/07 14:07:00;;;;;;;;;;;;;;;21.25;59.01;100194.27;104688;1263;61380;-55
2024/04/07 14:09:27;;;;;;;;;;;;;;;21.39;57.84;100182.79;104273;1263;60529;-57
2024/04/07 14:11:55;;;;;;;;;;;;;;;21.56;58.45;100183.09;105092;1260;75544;-56
2024/04/07 14:14:23;;;;;;;2.90;2.10;;;;;;;21.78;57.47;100184.54;104780;1257;69348;-56
2024/04/07 14:16:51;;;;;;;2.60;1.90;;;;;;;21.99;57.21;100184.98;104353;1258;73179;-56
2024/04/07 14:19:19;;;;;;;5.00;2.40;;;;;;;22.20;55.92;100185.09;104602;1257;60572;-56
2024/04/07 14:21:47;;;;;;;3.60;2.20;;;;;;;22.24;55.11;100183.98;104583;1270;59955;-58
2024/04/07 14:24:14;;;;;;;6.70;2.40;;;;;;;22.21;55.63;100187.82;104563;1257;73980;-56
2024/04/07 14:26:42;;;;;;;4.00;1.90;;;;;;;22.16;55.62;100186.95;104652;1260;68794;-56